createdAt,value
2023-01-28T00:05:01.694Z,100117.31
2023-01-28T00:10:05.129Z,100116.38
2023-01-28T00:15:08.949Z,100119.81
2023-01-28T00:20:12.589Z,100125.78
2023-01-28T00:25:16.933Z,100123.91
2023-01-28T00:30:20.823Z,100126.63
2023-01-28T00:35:23.566Z,100133.63
2023-01-28T00:40:26.589Z,100122.44
2023-01-28T00:45:29.898Z,100129.34
2023-01-28T00:50:32.856Z,100132.91
2023-01-28T00:55:35.963Z,100134.56
2023-01-28T01:00:38.951Z,100135.81
2023-01-28T01:05:41.826Z,100144.59
2023-01-28T01:10:45.023Z,100143.13
2023-01-28T01:15:47.885Z,100144.91
2023-01-28T01:20:52.235Z,100140.72
2023-01-28T01:25:55.733Z,100142.63
2023-01-28T01:31:20.238Z,100150.53
2023-01-28T01:36:26.184Z,100138.41
2023-01-28T01:41:32.187Z,100153.16
2023-01-28T01:46:51.126Z,100151.28
2023-01-28T01:52:14.526Z,100147.00
2023-01-28T01:57:26.831Z,100151.28
2023-01-28T02:02:30.709Z,100136.03
2023-01-28T02:07:34.520Z,100151.28
2023-01-28T02:12:46.221Z,100143.53
2023-01-28T02:17:51.106Z,100160.78
2023-01-28T02:23:21.568Z,100152.00
2023-01-28T02:28:30.127Z,100151.47
2023-01-28T02:33:58.880Z,100145.63
2023-01-28T02:39:13.500Z,100144.34
2023-01-28T02:44:16.478Z,100155.56
2023-01-28T02:49:45.409Z,100148.72
2023-01-28T02:55:08.593Z,100150.81
2023-01-28T03:00:27.842Z,100142.97
2023-01-28T03:05:41.166Z,100137.03
2023-01-28T03:10:43.998Z,100144.84
2023-01-28T03:16:07.289Z,100137.31
2023-01-28T03:21:39.889Z,100157.09
2023-01-28T03:27:09.602Z,100142.97
2023-01-28T03:32:31.974Z,100139.63
2023-01-28T03:37:35.215Z,100144.66
2023-01-28T03:42:38.166Z,100148.19
2023-01-28T03:47:41.386Z,100160.13
2023-01-28T03:52:44.456Z,100154.91
2023-01-28T03:57:47.496Z,100159.41
2023-01-28T04:02:51.031Z,100155.97
2023-01-28T04:07:57.408Z,100156.03
2023-01-28T04:13:00.536Z,100154.38
2023-01-28T04:18:04.209Z,100155.19
2023-01-28T04:23:10.290Z,100161.25
2023-01-28T04:28:13.235Z,100163.13
2023-01-28T04:33:16.073Z,100167.41
2023-01-28T04:38:19.042Z,100167.41
2023-01-28T04:43:22.071Z,100173.41
2023-01-28T04:48:25.211Z,100173.19
2023-01-28T04:53:28.167Z,100179.06
2023-01-28T04:58:31.200Z,100179.06
2023-01-28T05:03:36.255Z,100187.63
2023-01-28T05:08:39.401Z,100186.13
2023-01-28T05:13:42.457Z,100192.19
2023-01-28T05:18:48.163Z,100192.41
2023-01-28T05:23:51.158Z,100203.50
2023-01-28T05:28:54.186Z,100196.41
2023-01-28T05:33:57.937Z,100199.97
2023-01-28T05:39:00.932Z,100209.56
2023-01-28T05:44:05.067Z,100219.19
2023-01-28T05:49:12.359Z,100222.09
2023-01-28T05:54:15.250Z,100224.69
2023-01-28T05:59:18.673Z,100216.88
2023-01-28T06:04:22.027Z,100222.28
2023-01-28T06:09:24.995Z,100234.59
2023-01-28T06:14:27.875Z,100233.94
2023-01-28T06:19:30.763Z,100242.72
2023-01-28T06:24:33.911Z,100255.69
2023-01-28T06:29:36.947Z,100262.50
2023-01-28T06:34:40.460Z,100263.44
2023-01-28T06:39:43.229Z,100265.00
2023-01-28T06:44:46.228Z,100283.19
2023-01-28T06:49:49.164Z,100274.63
2023-01-28T06:54:53.628Z,100287.69
2023-01-28T06:59:56.581Z,100288.50
2023-01-28T07:04:59.629Z,100299.63
2023-01-28T07:10:02.769Z,100304.63
2023-01-28T07:15:06.644Z,100303.41
2023-01-28T07:20:15.970Z,100306.03
2023-01-28T07:25:19.287Z,100304.25
2023-01-28T07:30:24.219Z,100329.03
2023-01-28T07:35:27.913Z,100325.50
2023-01-28T07:40:31.035Z,100322.78
2023-01-28T07:45:34.435Z,100324.38
2023-01-28T07:50:38.526Z,100325.75
2023-01-28T07:55:41.519Z,100333.47
2023-01-28T08:00:44.710Z,100334.34
2023-01-28T08:05:51.746Z,100340.31
2023-01-28T08:10:54.806Z,100342.53
2023-01-28T08:15:57.856Z,100343.78
2023-01-28T08:21:02.321Z,100351.97
2023-01-28T08:26:05.258Z,100354.13
2023-01-28T08:31:08.592Z,100353.59
2023-01-28T08:36:12.750Z,100358.03
2023-01-28T08:41:15.754Z,100351.97
2023-01-28T08:46:18.587Z,100369.38
2023-01-28T08:51:21.355Z,100358.41
2023-01-28T08:56:24.202Z,100352.13
2023-01-28T09:01:29.483Z,100351.28
2023-01-28T09:06:33.066Z,100345.53
2023-01-28T09:11:36.041Z,100353.34
2023-01-28T09:16:38.937Z,100357.22
2023-01-28T09:21:42.103Z,100363.69
2023-01-28T09:26:45.562Z,100373.34
2023-01-28T09:31:48.623Z,100374.16
2023-01-28T09:36:51.503Z,100371.88
2023-01-28T09:42:37.132Z,100376.94
2023-01-28T09:47:53.964Z,100375.56
2023-01-28T09:53:20.909Z,100363.59
2023-01-28T09:58:24.134Z,100367.13
2023-01-28T10:03:58.325Z,100373.63
2023-01-28T10:09:33.215Z,100359.44
2023-01-28T10:14:50.897Z,100355.28
2023-01-28T10:20:17.958Z,100359.78
2023-01-28T10:25:25.889Z,100351.69
2023-01-28T10:30:35.212Z,100367.69
2023-01-28T10:35:42.701Z,100367.03
2023-01-28T10:40:48.329Z,100363.81
2023-01-28T10:46:32.602Z,100358.38
2023-01-28T10:51:39.005Z,100363.28
2023-01-28T10:56:44.047Z,100363.66
2023-01-28T11:01:56.560Z,100363.09
2023-01-28T11:07:02.340Z,100363.69
2023-01-28T11:12:26.051Z,100351.66
2023-01-28T11:17:40.220Z,100359.16
2023-01-28T11:22:45.139Z,100351.06
2023-01-28T11:27:51.537Z,100346.66
2023-01-28T11:33:21.487Z,100341.00
2023-01-28T11:38:26.161Z,100338.47
2023-01-28T11:43:31.599Z,100337.22
2023-01-28T11:48:49.705Z,100337.69
2023-01-28T11:54:35.521Z,100337.41
2023-01-28T11:59:53.437Z,100326.16
2023-01-28T12:05:11.799Z,100319.75
2023-01-28T12:10:49.736Z,100325.13
2023-01-28T12:16:30.452Z,100324.34
2023-01-28T12:22:08.528Z,100320.44
2023-01-28T12:27:38.220Z,100324.88
2023-01-28T12:33:26.147Z,100324.25
2023-01-28T12:38:53.932Z,100320.09
2023-01-28T12:44:09.636Z,100324.13
2023-01-28T12:49:36.316Z,100327.84
2023-01-28T12:55:05.375Z,100332.63
2023-01-28T13:00:37.025Z,100327.72
2023-01-28T13:05:48.487Z,100336.56
2023-01-28T13:10:53.334Z,100343.06
2023-01-28T13:15:56.439Z,100346.16
2023-01-28T13:21:01.837Z,100345.09
2023-01-28T13:26:20.062Z,100355.84
2023-01-28T13:31:24.742Z,100358.34
2023-01-28T13:36:39.202Z,100360.97
2023-01-28T13:41:47.758Z,100366.47
2023-01-28T13:46:51.010Z,100377.66
2023-01-28T13:52:12.287Z,100383.88
2023-01-28T13:57:39.249Z,100392.09
2023-01-28T14:03:09.682Z,100385.41
2023-01-28T14:08:24.456Z,100389.34
2023-01-28T14:14:05.911Z,100393.16
2023-01-28T14:19:14.472Z,100397.66
2023-01-28T14:24:19.610Z,100400.75
2023-01-28T14:29:57.637Z,100402.16
2023-01-28T14:35:09.909Z,100407.16
2023-01-28T14:40:17.023Z,100410.22
2023-01-28T14:45:25.934Z,100408.06
2023-01-28T14:50:53.794Z,100413.97
2023-01-28T14:56:20.269Z,100423.38
2023-01-28T15:01:29.914Z,100421.94
2023-01-28T15:06:36.145Z,100432.38
2023-01-28T15:11:43.507Z,100436.81
2023-01-28T15:16:50.831Z,100436.63
2023-01-28T15:21:58.080Z,100443.34
2023-01-28T15:27:01.791Z,100450.94
2023-01-28T15:32:07.270Z,100461.19
2023-01-28T15:37:11.152Z,100460.13
2023-01-28T15:42:29.410Z,100461.63
2023-01-28T15:47:35.373Z,100479.31
2023-01-28T15:52:42.305Z,100472.94
2023-01-28T15:57:45.243Z,100475.00
2023-01-28T16:02:51.488Z,100485.06
2023-01-28T16:07:56.465Z,100496.78
2023-01-28T16:13:07.376Z,100504.09
2023-01-28T16:18:30.209Z,100512.16
2023-01-28T16:23:33.626Z,100513.28
2023-01-28T16:28:36.435Z,100514.53
2023-01-28T16:33:39.417Z,100530.34
2023-01-28T16:38:42.541Z,100533.16
2023-01-28T16:43:45.538Z,100532.53
2023-01-28T16:48:48.600Z,100538.59
2023-01-28T16:53:51.945Z,100534.50
2023-01-28T16:58:56.004Z,100536.38
2023-01-28T17:03:59.079Z,100534.88
2023-01-28T17:09:02.154Z,100536.94
2023-01-28T17:14:05.103Z,100545.91
2023-01-28T17:19:08.107Z,100545.19
2023-01-28T17:24:10.968Z,100553.97
2023-01-28T17:29:13.914Z,100553.31
2023-01-28T17:34:16.768Z,100567.34
2023-01-28T17:39:19.703Z,100570.06
2023-01-28T17:44:22.766Z,100578.84
2023-01-28T17:49:25.738Z,100583.25
2023-01-28T17:54:28.858Z,100585.03
2023-01-28T17:59:31.766Z,100594.72
2023-01-28T18:04:39.793Z,100599.13
2023-01-28T18:09:45.880Z,100597.44
2023-01-28T18:14:48.996Z,100602.69
2023-01-28T18:19:52.701Z,100605.19
2023-01-28T18:24:55.731Z,100613.97
2023-01-28T18:29:58.771Z,100613.97
2023-01-28T18:35:06.711Z,100610.44
2023-01-28T18:40:10.633Z,100613.97
2023-01-28T18:45:13.940Z,100616.59
2023-01-28T18:50:17.185Z,100621.72
2023-01-28T18:55:21.560Z,100618.38
2023-01-28T19:00:24.645Z,100622.56
2023-01-28T19:05:33.898Z,100637.44
2023-01-28T19:10:36.947Z,100632.28
2023-01-28T19:15:40.259Z,100630.72
2023-01-28T19:20:43.733Z,100642.03
2023-01-28T19:25:46.680Z,100648.19
2023-01-28T19:30:50.043Z,100657.25
2023-01-28T19:36:01.076Z,100654.91
2023-01-28T19:41:08.184Z,100659.56
2023-01-28T19:46:16.240Z,100666.94
2023-01-28T19:51:20.016Z,100671.44
2023-01-28T19:56:25.389Z,100674.31
2023-01-28T20:01:30.438Z,100680.84
2023-01-28T20:06:35.605Z,100689.59
2023-01-28T20:11:38.515Z,100684.69
2023-01-28T20:16:42.089Z,100681.22
2023-01-28T20:21:47.589Z,100689.81
2023-01-28T20:26:50.547Z,100686.34
2023-01-28T20:32:13.708Z,100690.75
2023-01-28T20:37:20.060Z,100689.22
2023-01-28T20:42:23.013Z,100691.94
2023-01-28T20:47:25.996Z,100697.44
2023-01-28T20:52:28.963Z,100701.91
2023-01-28T20:57:32.207Z,100708.81
2023-01-28T21:02:39.898Z,100709.75
2023-01-28T21:07:43.083Z,100729.81
2023-01-28T21:12:45.963Z,100735.91
2023-01-28T21:17:48.839Z,100730.00
2023-01-28T21:22:56.105Z,100736.16
2023-01-28T21:27:59.083Z,100744.84
2023-01-28T21:33:02.031Z,100739.81
2023-01-28T21:38:06.227Z,100748.38
2023-01-28T21:43:09.350Z,100740.44
2023-01-28T21:48:12.464Z,100737.72
2023-01-28T21:53:15.303Z,100735.97
2023-01-28T21:58:36.616Z,100730.00
2023-01-28T22:03:39.671Z,100747.53
2023-01-28T22:08:42.596Z,100752.94
2023-01-28T22:13:45.687Z,100745.72
2023-01-28T22:18:50.275Z,100745.97
2023-01-28T22:23:53.957Z,100753.38
2023-01-28T22:28:56.918Z,100751.31
2023-01-28T22:33:59.951Z,100760.91
2023-01-28T22:39:05.239Z,100768.31
2023-01-28T22:44:08.528Z,100764.94
2023-01-28T22:49:12.600Z,100768.75
2023-01-28T22:54:15.716Z,100775.97
2023-01-28T22:59:18.449Z,100758.13
2023-01-28T23:04:21.408Z,100765.81
2023-01-28T23:09:24.416Z,100769.41
2023-01-28T23:14:45.638Z,100773.03
2023-01-28T23:20:06.949Z,100775.72
2023-01-28T23:25:10.981Z,100773.19
2023-01-28T23:30:15.233Z,100789.03
2023-01-28T23:35:19.373Z,100771.66
2023-01-28T23:40:24.720Z,100769.94
2023-01-28T23:45:27.719Z,100769.22
2023-01-28T23:50:31.089Z,100778.41
2023-01-28T23:55:33.903Z,100780.66
